CheckWX is a tool to help pilots better visualize weather data.  It is not intended as a substitute for an official pre-flight weather briefing.

13:46:16 UTC

KCDD METAR
Scotts Seaplane Base
Crane Lake, Minnesota, USA
Current

22 mins ago

KCDD 151324Z AUTO 00000KT 10SM OVC013 13/12 A2999 RMK AO2
Observed
Sep-15 @ 13:24 UTC
Visibility
10 SM
Flight Rules
MVFR
Cloud Levels
  • Overcast at 1,300' AGL
Temperature
13°C / 55°F
Dewpoint
12°C / 54°F
Humidity
94%
Altimeter
29.99" Hg
Pressure
1015.62 hPa
Previous

42 mins ago

KCDD 151304Z AUTO 00000KT 10SM OVC013 12/12 A2998 RMK AO2
Observed
Sep-15 @ 13:04 UTC
Visibility
10 SM
Flight Rules
MVFR
Cloud Levels
  • Overcast at 1,300' AGL
Temperature
12°C / 54°F
Dewpoint
12°C / 54°F
Humidity
100%
Altimeter
29.98" Hg
Pressure
1015.22 hPa
Previous

1 hour ago

KCDD 151244Z AUTO 00000KT 10SM OVC013 12/12 A2999 RMK AO2
Observed
Sep-15 @ 12:44 UTC
Visibility
10 SM
Flight Rules
MVFR
Cloud Levels
  • Overcast at 1,300' AGL
Temperature
12°C / 54°F
Dewpoint
12°C / 54°F
Humidity
100%
Altimeter
29.99" Hg
Pressure
1015.62 hPa